Выкса

Карта отелей и гостиниц, располагающихся рядом с аэропортом Выкса :

Выкса
Выкса
Нижегородская область 55° 19' 44.04" N, 42° 7' 7.0212" E
Выкса
Выкса
Нижегородская область 55° 19' 44.04" N, 42° 7' 7.0212" E
Код аэродрома ИКАО
UWGX
Код аэродрома RU
УВГЬ
Координаты
N55.32890° E042.11862°
Превышение над уровнем моря
115
Основная полоса
04/22
Курс магнитный
037/217
Длина основной ВПП
550
Ширина основной ВПП
58
Покрытие основной ВПП
Нетвёрдое (грунт)
Освещение ВПП
Нет
Тип: 
Аэродром
Класс аэродрома: 
Принадлежность: 
ГА
Статус: 
Недействующий
Сайт: 
E-mail аэродрома: 
Страна: 
Россия
Регион: 
Нижегородская область
Город: 
Выкса
Дополнительная информация: 
Бывший аэропорт МВЛ-2. Полоса 04/22 в 70-80-х гг. имела маркировку 03/21 и размеры 900х200 м. В н. в. превращена в полевую дорогу, подходы и порог 04 застроены. Полоса 15/33 перестала действовать в начале 80-х гг, в н. в. заросла и застроена. Часть лётного поля южнее полосы 04/22 (место видно на спутниковых снимках Google) в ВЛП используется местным энтузиастом-паралётчиком, посадка паралётов возможна.

Найти трансфер

С помощью этой формы Вы можете найти трансфер из аэропорта Выкса в город, аэропорт или вокзал:

Карта места

Javascript is required to view this map.

Погода в аэропортах:

Авиационная погода в Воронеже

Регион: 
Погода METAR: 
UUOO 281300Z 13002MPS 0250 0200NE R12/0550N FG VV000 06/06 Q1009 R12/290155 NOSIG RMK QBB020 QFE743
Время наблюдения
2021-11-28T13:00:00Z
Температура C
6.0
Точка росы
6.0
Направление ветра
130
Скорость ветра (узлы)
4
Метео видимость
0.16
Явления погоды
FG
Условия полета
LIFR
Аэропорт подробнее: 

Авиационная погода в Курске

Погода METAR: 
UUOK 281300Z 18002MPS 160V240 5000 BR OVC011 07/06 Q1008 R30/290050 TEMPO 1500 BR RMK QFE737/0983
Время наблюдения
2021-11-28T13:00:00Z
Температура C
7.0
Точка росы
6.0
Направление ветра
180
Скорость ветра (узлы)
4
Метео видимость
3.11
Явления погоды
BR
Условия полета
MVFR
Аэропорт подробнее: 

Авиационная погода в Бресте

Регион: 
Погода METAR: 
UMBB 281100Z 07003MPS 5000 BR OVC040 02/01 Q0999 NOSIG
Время наблюдения
2021-11-28T11:00:00Z
Температура C
2.0
Точка росы
1.0
Направление ветра
70
Скорость ветра (узлы)
6
Метео видимость
3.11
Явления погоды
BR
Условия полета
MVFR
Аэропорт подробнее: 

Авиационная погода в Самаре

Регион: 
Погода METAR: 
UWWW 281300Z 18008MPS 9000 -FZRA OVC008 M01/M03 Q1016 R15/590234 TEMPO 2000 FZRA RMK QFE750/1000
Время наблюдения
2021-11-28T13:00:00Z
Температура C
-1.0
Точка росы
-3.0
Направление ветра
180
Скорость ветра (узлы)
16
Метео видимость
5.59
Явления погоды
-FZRA
Условия полета
IFR
Аэропорт подробнее: